Unser Flugplatzteam

Segelflugzeugschlepp am Flugplatz Konstanz

Unsere freundlichen Mitarbeiter stehen Ihnen gerne mit Rat und Tat zur Seite:

Robert Leitner

Flugleiter, Landesbeauftragter für Luftaufsicht am Verkehrlandeplatz Konstanz

Minky Schweizer

Flugleiterin

Dieter Bauer

Flugleiter

Live am Platz

Die Bilder unserer Webcams werden alle 5 Minuten aktualisiert.

Sonnenaufgang:

03:47 UTC / 05:47 Lokal

Sonnenuntergang:

19:12 UTC / 21:12 Lokal

METAR (21.07.2018 22:20 UTC):

EDNY 212220Z AUTO 26003KT 230V320 9999 // SCT038/// BKN045/// OVC073/// 18/15 Q1015
VFR

TAF (21.07.2018 17:00 UTC):

TAF EDNY 211700Z 2118/2218 25005KT 9999 SCT030 PROB30 TEMPO 2118/2120 27015G25KT 4000 TSRA BKN012CB PROB30 TEMPO 2215/2218 36015G25KT 4000 TSRA BKN012 BKN020CB

Alle Angaben unverbindlich und ohne Gewähr. Zeiten genähert.

Für den Verkehrslandeplatz Konstanz werden keine offiziellen Wetterinformationen herausgegeben. Daher werden zur Orientierung Daten des nahegelegenen Flughafens Friedrichshafen dargestellt.